Time;durP1;ratioP1;P1;durP2;ratioP2;P2;SDS_P1;SDS_P2;PMS_P1;PMS_P2;Temp;Humidity;BMP_temperature;BMP_pressure;BME280_temperature;BME280_humidity;BME280_pressure;Samples;Min_cycle;Max_cycle;Signal;HPM_P1;HPM_P2
2024/01/08 00:00:12;;;;;;;13.88;8.27;;;;;;;7.66;95.14;92398.50;5082063;28;20046;-82
2024/01/08 00:02:37;;;;;;;14.05;7.68;;;;;;;7.68;94.99;92398.19;5080948;28;20020;-81
2024/01/08 00:05:03;;;;;;;11.85;6.15;;;;;;;7.66;94.74;92403.81;5082054;28;20234;-81
2024/01/08 00:07:28;;;;;;;7.68;3.95;;;;;;;7.53;93.51;92402.22;5084850;28;20048;-81
2024/01/08 00:09:54;;;;;;;9.15;4.43;;;;;;;7.50;93.59;92402.91;5085722;28;20024;-82
2024/01/08 00:12:19;;;;;;;10.77;3.72;;;;;;;7.39;93.81;92403.31;5085419;28;20067;-82
2024/01/08 00:14:44;;;;;;;8.57;4.05;;;;;;;7.41;93.99;92403.00;5085391;28;20020;-81
2024/01/08 00:17:10;;;;;;;7.63;3.95;;;;;;;7.39;94.16;92410.50;5085338;28;20043;-81
2024/01/08 00:19:35;;;;;;;6.18;3.40;;;;;;;7.34;94.27;92405.41;5085656;28;20013;-82
2024/01/08 00:22:00;;;;;;;6.88;3.22;;;;;;;7.30;94.81;92409.81;5084340;28;20112;-82
2024/01/08 00:24:26;;;;;;;6.55;3.40;;;;;;;7.29;94.92;92402.97;5085429;28;20051;-82
2024/01/08 00:26:51;;;;;;;6.80;2.88;;;;;;;7.28;94.51;92407.47;5084106;28;20031;-82
2024/01/08 00:29:17;;;;;;;5.15;2.85;;;;;;;7.24;94.57;92406.59;5085342;28;20072;-82
2024/01/08 00:31:42;;;;;;;4.90;2.22;;;;;;;7.23;94.61;92410.34;5085232;28;20025;-79
2024/01/08 00:34:08;;;;;;;8.00;2.65;;;;;;;7.17;94.52;92406.34;5085485;28;20027;-80
2024/01/08 00:36:36;;;;;;;4.10;1.77;;;;;;;7.15;94.33;92411.97;5101024;28;20024;-79
2024/01/08 00:39:02;;;;;;;4.07;1.52;;;;;;;7.16;94.98;92415.38;5085021;28;20020;-81
2024/01/08 00:41:27;;;;;;;4.50;1.73;;;;;;;7.11;95.13;92411.06;5085068;28;20017;-82
2024/01/08 00:43:53;;;;;;;2.63;1.15;;;;;;;7.09;95.35;92417.81;5084892;28;20039;-82
2024/01/08 00:46:18;;;;;;;2.30;1.00;;;;;;;7.09;95.37;92423.09;5084959;28;20357;-82
2024/01/08 00:48:44;;;;;;;1.83;0.90;;;;;;;7.07;95.29;92430.59;5084925;28;20099;-82
2024/01/08 00:51:09;;;;;;;3.65;1.08;;;;;;;7.10;94.73;92430.72;5083642;28;20111;-83
2024/01/08 00:53:35;;;;;;;4.05;1.33;;;;;;;7.01;95.31;92433.44;5085075;28;20016;-82
2024/01/08 00:56:00;;;;;;;3.92;1.10;;;;;;;7.01;95.57;92432.69;5083705;28;20022;-82
2024/01/08 00:58:25;;;;;;;2.40;1.30;;;;;;;6.99;95.87;92437.53;5083525;28;20079;-82
2024/01/08 01:00:51;;;;;;;2.38;1.40;;;;;;;7.02;95.98;92440.31;5084764;28;20083;-82
2024/01/08 01:03:16;;;;;;;2.15;1.13;;;;;;;7.01;95.95;92432.69;5084753;28;20044;-83
2024/01/08 01:05:42;;;;;;;4.03;1.23;;;;;;;7.07;96.11;92433.25;5084791;28;20024;-82
2024/01/08 01:08:07;;;;;;;2.55;1.50;;;;;;;7.09;96.21;92431.06;5084666;28;20204;-82
2024/01/08 01:10:33;;;;;;;3.50;1.88;;;;;;;7.15;95.95;92440.34;5084402;28;20024;-82
2024/01/08 01:12:59;;;;;;;2.78;1.30;;;;;;;7.17;96.25;92446.09;5083365;28;20029;-83
2024/01/08 01:15:24;;;;;;;2.35;1.17;;;;;;;7.23;96.20;92439.50;5084818;28;20020;-86
2024/01/08 01:17:49;;;;;;;3.03;1.25;;;;;;;7.15;96.49;92453.59;5083447;28;20036;-86
2024/01/08 01:20:15;;;;;;;3.17;1.63;;;;;;;7.06;96.79;92447.59;5083414;28;20020;-86
2024/01/08 01:22:40;;;;;;;3.10;1.52;;;;;;;6.95;97.29;92460.47;5084443;28;20013;-86
2024/01/08 01:25:06;;;;;;;3.70;1.60;;;;;;;6.83;98.34;92456.63;5084399;28;20016;-86
2024/01/08 01:27:31;;;;;;;3.22;1.83;;;;;;;6.77;99.05;92462.47;5084163;28;20032;-86
2024/01/08 01:29:57;;;;;;;4.00;1.60;;;;;;;6.76;99.33;92463.56;5083110;28;20048;-86
2024/01/08 01:32:22;;;;;;;3.72;1.85;;;;;;;6.74;99.80;92457.81;5083974;28;20330;-83
2024/01/08 01:34:47;;;;;;;5.15;2.28;;;;;;;6.74;100.00;92460.47;5083939;28;20027;-83
2024/01/08 01:37:13;;;;;;;5.40;1.60;;;;;;;6.76;100.00;92463.56;5083850;28;20036;-85
2024/01/08 01:39:38;;;;;;;3.58;1.95;;;;;;;6.79;100.00;92457.63;5083771;28;20024;-81
2024/01/08 01:42:04;;;;;;;5.57;2.50;;;;;;;6.81;100.00;92448.25;5084155;28;20087;-82
2024/01/08 01:44:29;;;;;;;3.50;1.98;;;;;;;6.82;100.00;92455.09;5083902;28;20032;-81
2024/01/08 01:46:56;;;;;;;4.63;2.78;;;;;;;6.82;100.00;92460.41;5083759;28;20020;-81
2024/01/08 01:49:23;;;;;;;3.97;2.38;;;;;;;6.86;100.00;92454.44;5083731;28;20020;-81
2024/01/08 01:51:49;;;;;;;3.97;2.13;;;;;;;6.88;100.00;92465.50;5083516;28;20040;-81
2024/01/08 01:54:18;;;;;;;4.75;2.25;;;;;;;6.89;100.00;92464.41;5083720;28;20020;-80
2024/01/08 01:56:46;;;;;;;5.68;2.30;;;;;;;6.87;100.00;92462.06;5083697;28;20020;-80
2024/01/08 01:59:12;;;;;;;9.80;3.50;;;;;;;6.78;100.00;92469.31;5083536;28;20032;-80
2024/01/08 02:01:37;;;;;;;6.63;4.18;;;;;;;6.66;100.00;92471.91;5083543;28;20025;-80
2024/01/08 02:04:03;;;;;;;8.18;4.47;;;;;;;6.58;100.00;92470.84;5083561;28;20101;-79
2024/01/08 02:06:29;;;;;;;11.45;5.13;;;;;;;6.50;100.00;92469.03;5083287;28;20039;-80
2024/01/08 02:08:55;;;;;;;8.63;4.45;;;;;;;6.42;100.00;92476.69;5083395;28;20318;-80
2024/01/08 02:11:21;;;;;;;8.63;4.70;;;;;;;6.25;100.00;92470.72;5083070;28;20112;-79
2024/01/08 02:13:47;;;;;;;8.25;5.03;;;;;;;6.24;100.00;92472.59;5083376;28;20020;-80
2024/01/08 02:16:13;;;;;;;7.15;4.03;;;;;;;6.14;100.00;92489.59;5082087;28;20319;-80
2024/01/08 02:18:39;;;;;;;6.82;3.42;;;;;;;6.06;100.00;92485.13;5083320;28;20027;-82
2024/01/08 02:21:04;;;;;;;6.15;3.47;;;;;;;6.04;100.00;92484.66;5082038;28;20048;-82
2024/01/08 02:23:30;;;;;;;10.02;3.67;;;;;;;6.01;100.00;92490.59;5083211;28;20054;-82
2024/01/08 02:25:55;;;;;;;8.52;3.50;;;;;;;5.98;100.00;92480.66;5083109;28;20058;-81
2024/01/08 02:28:21;;;;;;;6.47;3.63;;;;;;;6.01;100.00;92482.66;5081917;28;20051;-81
2024/01/08 02:30:46;;;;;;;6.32;2.83;;;;;;;5.95;100.00;92487.34;5081609;28;20082;-81
2024/01/08 02:33:12;;;;;;;3.85;2.45;;;;;;;5.88;100.00;92484.38;5082891;28;20035;-81
2024/01/08 02:35:37;;;;;;;4.60;2.53;;;;;;;5.90;100.00;92478.78;5083143;28;20028;-80
2024/01/08 02:38:03;;;;;;;5.22;2.03;;;;;;;5.88;100.00;92491.53;5083011;28;20208;-81
2024/01/08 02:40:28;;;;;;;4.97;2.33;;;;;;;5.92;100.00;92487.16;5082898;28;20308;-80
2024/01/08 02:42:54;;;;;;;5.47;2.30;;;;;;;5.90;100.00;92484.06;5082936;28;20364;-81
2024/01/08 02:45:19;;;;;;;4.68;2.00;;;;;;;5.85;100.00;92495.59;5082852;28;20016;-81
2024/01/08 02:47:44;;;;;;;4.13;2.17;;;;;;;5.85;100.00;92503.53;5082907;28;20017;-81
2024/01/08 02:50:10;;;;;;;4.50;2.08;;;;;;;5.88;100.00;92491.53;5082786;28;20083;-77
2024/01/08 02:52:36;;;;;;;2.78;1.33;;;;;;;5.87;100.00;92505.88;5082979;28;20048;-79
2024/01/08 02:55:02;;;;;;;3.33;1.27;;;;;;;5.80;100.00;92496.56;5082956;28;20048;-79
2024/01/08 02:57:29;;;;;;;2.90;1.17;;;;;;;5.82;100.00;92510.25;5082971;28;20531;-79
2024/01/08 02:59:55;;;;;;;2.90;1.25;;;;;;;5.78;99.74;92511.97;5081596;28;20100;-79
2024/01/08 03:02:21;;;;;;;1.67;1.15;;;;;;;5.83;100.00;92516.28;5082661;28;20238;-79
2024/01/08 03:04:46;;;;;;;2.55;1.35;;;;;;;5.82;99.62;92512.88;5082754;28;20095;-79
2024/01/08 03:07:17;;;;;;;4.13;1.17;;;;;;;5.86;98.93;92517.53;5081468;28;20027;-79
2024/01/08 03:09:44;;;;;;;3.05;1.48;;;;;;;5.82;98.83;92515.53;5082889;28;20024;-79
2024/01/08 03:12:09;;;;;;;2.15;1.33;;;;;;;5.85;99.00;92522.03;5082234;28;20032;-79
2024/01/08 03:14:35;;;;;;;2.40;0.80;;;;;;;5.87;99.01;92524.38;5082876;28;20047;-82
2024/01/08 03:17:00;;;;;;;2.85;1.50;;;;;;;5.84;99.20;92528.41;5082664;28;20311;-82
2024/01/08 03:19:25;;;;;;;3.17;1.70;;;;;;;5.83;99.49;92529.50;5082462;28;20020;-82
2024/01/08 03:21:51;;;;;;;2.97;1.42;;;;;;;5.81;98.85;92529.06;5081381;28;20020;-82
2024/01/08 03:24:16;;;;;;;2.28;1.02;;;;;;;5.81;99.01;92532.47;5082629;28;20337;-82
2024/01/08 03:26:41;;;;;;;2.47;1.25;;;;;;;5.86;98.59;92536.03;5082503;28;20039;-82
2024/01/08 03:29:07;;;;;;;2.70;1.45;;;;;;;5.80;98.34;92538.88;5082761;28;20032;-83
2024/01/08 03:31:32;;;;;;;3.13;1.40;;;;;;;5.81;98.66;92535.13;5082456;28;20024;-78
2024/01/08 03:33:57;;;;;;;2.80;1.33;;;;;;;5.79;99.08;92545.22;5082358;28;20024;-78
2024/01/08 03:36:23;;;;;;;3.20;1.30;;;;;;;5.89;99.54;92551.28;5082447;28;20319;-78
2024/01/08 03:38:48;;;;;;;3.95;1.63;;;;;;;5.83;99.45;92548.78;5081271;28;20024;-78
2024/01/08 03:41:15;;;;;;;3.53;1.58;;;;;;;5.87;99.40;92559.53;5083376;28;20016;-79
2024/01/08 03:43:43;;;;;;;2.35;1.30;;;;;;;5.88;99.12;92560.28;5086066;28;20059;-78
2024/01/08 03:46:09;;;;;;;4.15;2.15;;;;;;;5.86;99.25;92562.47;5086506;28;20223;-77
2024/01/08 03:48:34;;;;;;;2.72;1.48;;;;;;;5.83;98.50;92558.59;5086155;28;20017;-80
2024/01/08 03:50:59;;;;;;;3.17;1.48;;;;;;;5.81;98.58;92556.25;5086021;28;20062;-80
2024/01/08 03:53:25;;;;;;;5.00;1.60;;;;;;;5.89;98.92;92567.91;5084940;28;20035;-79
2024/01/08 03:55:50;;;;;;;3.50;1.50;;;;;;;5.88;99.07;92570.88;5086060;28;20028;-79
2024/01/08 03:58:15;;;;;;;3.42;1.90;;;;;;;5.89;98.85;92567.16;5084681;28;20032;-79
2024/01/08 04:00:41;;;;;;;2.83;1.40;;;;;;;5.90;99.18;92574.75;5086149;28;20016;-79
2024/01/08 04:03:06;;;;;;;6.53;2.25;;;;;;;5.95;99.54;92576.50;5086160;28;20024;-80
2024/01/08 04:05:32;;;;;;;6.18;2.47;;;;;;;5.98;99.48;92587.22;5085722;28;20215;-79
2024/01/08 04:07:57;;;;;;;4.25;2.10;;;;;;;5.97;99.67;92585.66;5085910;28;20020;-79
2024/01/08 04:10:23;;;;;;;3.88;2.00;;;;;;;5.97;100.00;92585.66;5085888;28;20028;-79
2024/01/08 04:12:48;;;;;;;5.78;2.78;;;;;;;5.96;100.00;92588.63;5085278;28;20040;-79
2024/01/08 04:15:13;;;;;;;4.20;2.50;;;;;;;5.98;100.00;92594.38;5085687;28;20337;-79
2024/01/08 04:17:39;;;;;;;5.03;2.70;;;;;;;5.95;100.00;92601.06;5085570;28;20310;-79
2024/01/08 04:20:05;;;;;;;3.75;2.58;;;;;;;5.98;100.00;92604.94;5085503;28;20027;-79
2024/01/08 04:22:31;;;;;;;6.05;2.60;;;;;;;5.92;100.00;92598.25;5085466;28;20031;-79
2024/01/08 04:24:56;;;;;;;3.67;2.30;;;;;;;5.94;100.00;92601.34;5085675;28;20025;-82
2024/01/08 04:27:21;;;;;;;5.22;2.60;;;;;;;5.96;100.00;92604.50;5085204;28;20032;-82
2024/01/08 04:29:47;;;;;;;4.53;2.67;;;;;;;5.97;100.00;92606.06;5085468;28;20020;-83
2024/01/08 04:32:12;;;;;;;4.40;2.55;;;;;;;5.98;100.00;92608.41;5085344;28;20350;-82
2024/01/08 04:34:37;;;;;;;5.38;2.97;;;;;;;6.03;99.99;92616.16;5085258;28;20096;-82
2024/01/08 04:37:03;;;;;;;8.77;3.42;;;;;;;6.03;99.76;92618.78;5085295;28;20020;-82
2024/01/08 04:39:28;;;;;;;7.25;3.60;;;;;;;5.97;99.96;92621.94;5085169;28;20062;-82
2024/01/08 04:41:54;;;;;;;6.10;3.53;;;;;;;5.87;100.00;92620.34;5083744;28;20028;-82
2024/01/08 04:44:20;;;;;;;7.90;4.30;;;;;;;5.85;100.00;92634.97;5083495;28;20100;-82
2024/01/08 04:46:45;;;;;;;7.75;4.15;;;;;;;5.78;100.00;92630.94;5084667;28;20016;-84
2024/01/08 04:49:11;;;;;;;16.73;5.35;;;;;;;5.73;100.00;92638.25;5084982;28;20012;-83
2024/01/08 04:51:37;;;;;;;10.48;5.03;;;;;;;5.65;100.00;92644.31;5083828;28;20214;-83
2024/01/08 04:54:04;;;;;;;11.20;5.75;;;;;;;5.65;100.00;92647.72;5085160;28;20044;-82
2024/01/08 04:56:30;;;;;;;11.77;5.57;;;;;;;5.60;100.00;92661.13;5084966;28;20023;-83
2024/01/08 04:58:56;;;;;;;10.77;5.43;;;;;;;5.56;100.00;92650.38;5085075;28;20024;-82
2024/01/08 05:01:22;;;;;;;11.32;4.97;;;;;;;5.50;100.00;92661.44;5084733;28;20263;-79
2024/01/08 05:03:47;;;;;;;11.02;5.05;;;;;;;5.42;100.00;92663.75;5084734;28;20245;-78
2024/01/08 05:06:13;;;;;;;7.60;4.40;;;;;;;5.38;100.00;92664.69;5084172;28;20016;-77
2024/01/08 05:08:39;;;;;;;13.77;4.93;;;;;;;5.35;100.00;92675.84;5084370;28;20215;-78
2024/01/08 05:11:08;;;;;;;6.93;3.92;;;;;;;5.28;100.00;92678.94;5084467;28;20040;-78
2024/01/08 05:13:38;;;;;;;6.57;3.25;;;;;;;5.19;100.00;92684.22;5084717;28;20032;-82
2024/01/08 05:16:06;;;;;;;4.90;2.40;;;;;;;5.11;100.00;92690.28;5084433;28;20330;-81
2024/01/08 05:18:32;;;;;;;3.80;2.38;;;;;;;4.99;100.00;92690.84;5084556;28;20016;-81
2024/01/08 05:20:57;;;;;;;4.07;2.25;;;;;;;4.99;100.00;92700.66;5084462;28;20108;-81
2024/01/08 05:23:23;;;;;;;5.03;2.42;;;;;;;4.91;100.00;92699.53;5084401;28;20017;-78
2024/01/08 05:25:49;;;;;;;4.65;2.10;;;;;;;4.85;100.00;92706.03;5084269;28;20066;-79
2024/01/08 05:28:14;;;;;;;5.25;1.88;;;;;;;4.77;100.00;92704.91;5084115;28;20024;-79
2024/01/08 05:30:39;;;;;;;2.50;1.52;;;;;;;4.61;99.64;92709.03;5084188;28;20044;-83
2024/01/08 05:33:05;;;;;;;3.63;1.80;;;;;;;4.61;100.00;92719.56;5083172;28;20043;-83
2024/01/08 05:35:30;;;;;;;9.45;2.25;;;;;;;4.59;100.00;92722.50;5083029;28;20092;-83
2024/01/08 05:37:56;;;;;;;5.22;2.35;;;;;;;4.61;100.00;92728.28;5084021;28;20040;-83
2024/01/08 05:40:22;;;;;;;3.15;1.83;;;;;;;4.66;100.00;92734.50;5082927;28;20103;-83
2024/01/08 05:42:47;;;;;;;4.90;2.08;;;;;;;4.57;99.46;92731.81;5084014;28;20232;-83
2024/01/08 05:45:13;;;;;;;4.40;2.08;;;;;;;4.61;98.75;92743.34;5082736;28;20031;-83
2024/01/08 05:47:38;;;;;;;4.28;1.83;;;;;;;4.56;98.40;92752.16;5084141;28;20028;-83
2024/01/08 05:50:05;;;;;;;1.83;1.20;;;;;;;4.48;97.58;92755.53;5082810;28;20087;-83
2024/01/08 05:52:31;;;;;;;9.85;1.65;;;;;;;4.43;97.51;92758.28;5083701;28;20017;-83
2024/01/08 05:54:56;;;;;;;4.20;2.42;;;;;;;4.42;97.92;92772.56;5083767;28;20039;-81
2024/01/08 05:57:22;;;;;;;6.32;2.60;;;;;;;4.31;96.52;92768.59;5083867;28;20021;-81
2024/01/08 05:59:48;;;;;;;3.95;1.98;;;;;;;4.31;97.08;92760.69;5083753;28;20020;-83
2024/01/08 06:02:13;;;;;;;3.92;1.90;;;;;;;4.30;97.46;92764.41;5083820;28;20028;-83
2024/01/08 06:04:38;;;;;;;4.80;1.95;;;;;;;4.24;97.34;92768.25;5082008;28;20318;-82
2024/01/08 06:07:04;;;;;;;3.50;1.58;;;;;;;4.16;97.91;92782.94;5083840;28;20020;-83
2024/01/08 06:09:30;;;;;;;5.30;1.98;;;;;;;4.06;98.19;92788.44;5083984;28;20051;-83
2024/01/08 06:11:55;;;;;;;9.48;2.40;;;;;;;4.07;99.14;92787.34;5083269;28;20041;-82
2024/01/08 06:14:21;;;;;;;7.30;2.50;;;;;;;4.00;99.51;92798.31;5083342;28;20279;-82
2024/01/08 06:16:47;;;;;;;4.53;2.63;;;;;;;3.91;99.33;92790.34;5084057;28;20087;-82
2024/01/08 06:19:12;;;;;;;8.38;2.85;;;;;;;3.82;99.27;92800.00;5083646;28;20111;-80
2024/01/08 06:21:37;;;;;;;10.27;2.90;;;;;;;3.72;99.26;92806.28;5083660;28;20020;-79
2024/01/08 06:24:03;;;;;;;7.78;4.25;;;;;;;3.64;99.18;92811.47;5083313;28;20024;-80
2024/01/08 06:26:30;;;;;;;10.10;5.07;;;;;;;3.56;99.99;92811.09;5083226;28;20231;-79
2024/01/08 06:28:55;;;;;;;5.82;3.47;;;;;;;3.61;100.00;92815.47;5083246;28;20021;-79
2024/01/08 06:31:21;;;;;;;5.38;2.17;;;;;;;3.64;100.00;92822.00;5082995;28;20016;-80
2024/01/08 06:33:46;;;;;;;4.88;2.55;;;;;;;3.64;100.00;92827.28;5083078;28;20028;-79
2024/01/08 06:36:12;;;;;;;4.65;2.42;;;;;;;3.56;99.69;92834.00;5083155;28;20207;-78
2024/01/08 06:38:37;;;;;;;5.30;2.72;;;;;;;3.53;100.00;92831.97;5083911;28;20028;-78
2024/01/08 06:41:03;;;;;;;4.97;3.13;;;;;;;3.55;100.00;92840.38;5083735;28;20349;-82
2024/01/08 06:43:28;;;;;;;4.95;2.58;;;;;;;3.50;100.00;92843.09;5083685;28;20032;-83
2024/01/08 06:45:54;;;;;;;4.97;2.65;;;;;;;3.53;100.00;92845.16;5083737;28;20024;-82
2024/01/08 06:48:19;;;;;;;3.65;2.05;;;;;;;3.50;100.00;92848.34;5083364;28;20021;-82
2024/01/08 06:50:44;;;;;;;5.53;2.72;;;;;;;3.38;100.00;92852.28;5082452;28;20028;-82
2024/01/08 06:53:10;;;;;;;6.70;2.72;;;;;;;3.37;100.00;92855.97;5083352;28;20040;-81
2024/01/08 06:55:35;;;;;;;6.75;2.35;;;;;;;3.36;100.00;92858.91;5082872;28;20182;-81
2024/01/08 06:58:01;;;;;;;7.97;3.60;;;;;;;3.34;100.00;92877.63;5081619;28;20028;-79
2024/01/08 07:00:28;;;;;;;8.48;4.63;;;;;;;3.33;100.00;92864.75;5081660;28;20047;-80
2024/01/08 07:02:53;;;;;;;6.95;3.60;;;;;;;3.36;100.00;92880.75;5081543;28;20016;-79
2024/01/08 07:05:19;;;;;;;5.97;2.72;;;;;;;3.31;100.00;92883.47;5082685;28;20227;-79
2024/01/08 07:07:44;;;;;;;4.80;2.92;;;;;;;3.26;100.00;92886.22;5082484;28;20024;-79
2024/01/08 07:10:10;;;;;;;6.30;2.90;;;;;;;3.21;100.00;92900.22;5082705;28;20024;-80
2024/01/08 07:12:36;;;;;;;10.55;3.90;;;;;;;3.16;100.00;92894.28;5081402;28;20047;-79
2024/01/08 07:15:03;;;;;;;9.57;4.07;;;;;;;3.04;100.00;92904.50;5083501;28;20024;-80
2024/01/08 07:17:28;;;;;;;7.47;3.58;;;;;;;3.00;100.00;92909.56;5086564;28;20362;-80
2024/01/08 07:19:54;;;;;;;6.65;3.08;;;;;;;3.02;100.00;92910.06;5086657;28;20032;-79
2024/01/08 07:22:19;;;;;;;7.07;3.53;;;;;;;3.05;100.00;92920.00;5086584;28;20251;-79
2024/01/08 07:24:45;;;;;;;6.22;3.22;;;;;;;3.03;100.00;92919.50;5086577;28;20234;-80
2024/01/08 07:27:10;;;;;;;9.57;3.65;;;;;;;3.06;100.00;92924.19;5086484;28;20032;-80
2024/01/08 07:29:35;;;;;;;15.25;5.43;;;;;;;3.06;100.00;92933.97;5086510;28;20212;-79
2024/01/08 07:32:01;;;;;;;6.85;3.17;;;;;;;3.00;100.00;92947.19;5086105;28;20059;-79
2024/01/08 07:34:26;;;;;;;9.13;4.07;;;;;;;2.92;99.79;92950.47;5086295;28;20024;-79
2024/01/08 07:36:53;;;;;;;5.50;3.03;;;;;;;2.89;99.92;92952.91;5086273;28;20081;-79
2024/01/08 07:39:18;;;;;;;6.30;3.20;;;;;;;2.75;100.00;92952.88;5086235;28;20021;-79
2024/01/08 07:41:45;;;;;;;8.25;3.00;;;;;;;2.69;100.00;92956.63;5086091;28;20017;-79
2024/01/08 07:44:10;;;;;;;7.07;3.38;;;;;;;2.64;100.00;92967.22;5085951;28;20035;-79
2024/01/08 07:46:35;;;;;;;6.78;4.07;;;;;;;2.67;100.00;92974.56;5086213;28;20028;-79
2024/01/08 07:49:01;;;;;;;6.85;3.42;;;;;;;2.68;100.00;92986.63;5086075;28;20024;-79
2024/01/08 07:51:26;;;;;;;6.57;3.40;;;;;;;2.59;99.21;92984.63;5085913;28;20040;-80
2024/01/08 07:53:52;;;;;;;5.38;2.95;;;;;;;2.53;99.91;92980.50;5085841;28;20031;-79
2024/01/08 07:56:23;;;;;;;6.82;3.85;;;;;;;2.49;99.49;92976.88;5085824;28;20031;-80
2024/01/08 07:58:48;;;;;;;8.25;2.80;;;;;;;2.41;98.87;93001.19;5085558;28;20028;-74
2024/01/08 08:01:15;;;;;;;4.78;2.65;;;;;;;2.36;98.84;92994.16;5086168;28;20032;-75
2024/01/08 08:03:41;;;;;;;13.57;4.75;;;;;;;2.33;98.05;93002.59;5085700;28;20025;-74
2024/01/08 08:06:06;;;;;;;10.50;3.53;;;;;;;2.23;97.99;93009.84;5086005;28;20032;-74
2024/01/08 08:08:34;;;;;;;7.45;3.50;;;;;;;2.14;99.15;93004.44;5085675;28;20113;-77
2024/01/08 08:11:01;;;;;;;7.55;3.83;;;;;;;2.10;99.59;93006.81;5085655;28;20037;-77
2024/01/08 08:13:27;;;;;;;5.72;3.20;;;;;;;2.12;100.00;93017.84;5085603;28;20092;-75
2024/01/08 08:15:53;;;;;;;4.60;2.30;;;;;;;2.00;99.38;93023.50;5085700;28;20027;-76
2024/01/08 08:18:18;;;;;;;5.35;2.40;;;;;;;1.97;99.16;93025.88;5085649;28;20024;-79
2024/01/08 08:20:44;;;;;;;6.20;3.13;;;;;;;1.98;98.18;93027.47;5085497;28;20020;-77
2024/01/08 08:23:09;;;;;;;4.70;2.58;;;;;;;1.99;98.34;93035.09;5085416;28;20016;-76
2024/01/08 08:25:34;;;;;;;4.75;2.13;;;;;;;1.97;99.18;93037.22;5085692;28;20024;-76
2024/01/08 08:28:00;;;;;;;7.03;3.20;;;;;;;2.06;100.00;93045.25;5084684;28;20364;-75
2024/01/08 08:30:26;;;;;;;4.93;2.88;;;;;;;2.07;98.93;93033.66;5085468;28;20127;-76
2024/01/08 08:32:56;;;;;;;5.75;2.97;;;;;;;2.05;98.66;93046.31;5085112;28;20255;-76
2024/01/08 08:35:21;;;;;;;5.07;2.20;;;;;;;1.98;97.87;93046.63;5085286;28;20064;-76
2024/01/08 08:37:47;;;;;;;3.60;2.20;;;;;;;1.93;98.21;93048.53;5085236;28;20073;-76
2024/01/08 08:40:12;;;;;;;4.60;2.33;;;;;;;1.94;98.59;93060.63;5085268;28;20333;-76
2024/01/08 08:42:38;;;;;;;3.65;2.25;;;;;;;1.79;97.74;93062.34;5085183;28;20021;-76
2024/01/08 08:45:04;;;;;;;3.83;1.75;;;;;;;1.75;96.91;93071.03;5085068;28;20092;-76
2024/01/08 08:47:29;;;;;;;4.43;2.22;;;;;;;1.58;95.73;93074.84;5085371;28;20047;-75
2024/01/08 08:49:54;;;;;;;4.18;2.17;;;;;;;1.59;96.35;93057.28;5085074;28;20024;-73
2024/01/08 08:52:20;;;;;;;4.45;1.92;;;;;;;1.56;96.56;93069.09;5084937;28;20070;-76
2024/01/08 08:54:45;;;;;;;4.35;2.33;;;;;;;1.71;97.83;93062.94;5084853;28;20055;-77
2024/01/08 08:57:11;;;;;;;4.15;1.92;;;;;;;1.75;97.76;93071.03;5083325;28;20077;-77
2024/01/08 08:59:37;;;;;;;4.32;2.25;;;;;;;1.77;97.20;93076.78;5084977;28;20025;-75
2024/01/08 09:02:02;;;;;;;3.42;1.83;;;;;;;1.78;94.04;93073.91;5084806;28;20091;-74
2024/01/08 09:04:28;;;;;;;4.65;2.13;;;;;;;1.88;93.85;93077.50;5084573;28;20277;-75
2024/01/08 09:06:53;;;;;;;2.60;1.75;;;;;;;1.94;92.73;93073.75;5084516;28;20028;-75
2024/01/08 09:09:19;;;;;;;5.72;2.47;;;;;;;2.00;92.63;93072.66;5084615;28;20048;-75
2024/01/08 09:11:44;;;;;;;4.15;2.08;;;;;;;2.08;92.74;93074.66;5084453;28;20036;-75
2024/01/08 09:14:10;;;;;;;6.53;2.72;;;;;;;2.15;92.89;93075.09;5084522;28;20047;-75
2024/01/08 09:16:35;;;;;;;10.85;4.28;;;;;;;2.14;94.04;93084.06;5084528;28;20024;-75
2024/01/08 09:19:01;;;;;;;10.27;5.25;;;;;;;2.18;94.54;93085.06;5084479;28;20020;-77
2024/01/08 09:21:26;;;;;;;13.00;4.68;;;;;;;2.25;93.47;93070.81;5083306;28;20047;-76
2024/01/08 09:23:52;;;;;;;8.43;4.28;;;;;;;2.25;93.47;93086.59;5084297;28;20039;-76
2024/01/08 09:26:18;;;;;;;7.40;3.40;;;;;;;2.30;93.59;93076.81;5084337;28;20091;-79
2024/01/08 09:28:43;;;;;;;7.10;3.65;;;;;;;2.34;93.34;93083.06;5082963;28;20028;-79
2024/01/08 09:31:09;;;;;;;6.07;3.40;;;;;;;2.39;92.33;93079.59;5083955;28;20028;-78
2024/01/08 09:33:34;;;;;;;5.10;3.13;;;;;;;2.49;93.36;93079.47;5084252;28;20024;-79
2024/01/08 09:35:59;;;;;;;7.53;3.50;;;;;;;2.52;92.03;93086.78;5083924;28;20025;-78
2024/01/08 09:38:25;;;;;;;6.57;3.20;;;;;;;2.48;91.68;93083.16;5083039;28;20039;-79
2024/01/08 09:40:51;;;;;;;6.75;3.30;;;;;;;2.50;92.36;93088.13;5083653;28;20024;-78
2024/01/08 09:43:16;;;;;;;6.65;3.72;;;;;;;2.52;92.20;93078.13;5083872;28;20307;-75
2024/01/08 09:45:59;;;;;;;9.70;3.53;;;;;;;2.45;92.62;93083.72;5082637;28;20028;-75
2024/01/08 09:48:25;;;;;;;9.15;3.67;;;;;;;2.51;93.47;93093.13;5083921;28;20192;-75
2024/01/08 09:50:51;;;;;;;6.85;3.70;;;;;;;2.44;92.80;93097.16;5083704;28;20031;-75
2024/01/08 09:53:17;;;;;;;6.50;3.53;;;;;;;2.47;93.92;93099.25;5083728;28;20032;-77
2024/01/08 09:55:44;;;;;;;11.27;3.47;;;;;;;2.40;92.85;93097.72;5083641;28;20024;-77
2024/01/08 09:58:10;;;;;;;5.60;2.58;;;;;;;2.41;91.67;93095.88;5083820;28;20035;-77
2024/01/08 10:00:35;;;;;;;5.97;2.15;;;;;;;2.31;90.05;93091.50;5083733;28;20285;-77
2024/01/08 10:03:01;;;;;;;4.00;2.58;;;;;;;2.32;91.06;93111.50;5083619;28;20029;-77
2024/01/08 10:05:30;;;;;;;6.93;2.65;;;;;;;2.25;91.66;93094.47;5083577;28;20087;-77
2024/01/08 10:07:59;;;;;;;5.30;3.35;;;;;;;2.28;92.66;93102.59;5081937;28;20259;-77
2024/01/08 10:10:25;;;;;;;7.40;3.97;;;;;;;2.33;92.66;93096.50;5081456;28;20024;-77
2024/01/08 10:12:53;;;;;;;6.15;3.83;;;;;;;2.36;92.57;93104.63;5081423;28;20119;-77
2024/01/08 10:15:19;;;;;;;4.55;2.70;;;;;;;2.24;88.86;93108.66;5081093;28;20020;-77
2024/01/08 10:17:48;;;;;;;7.55;4.07;;;;;;;2.31;91.18;93088.09;5080240;28;20019;-77
2024/01/08 10:20:15;;;;;;;7.40;3.58;;;;;;;2.33;91.09;93107.78;5082130;28;20016;-78
2024/01/08 10:22:41;;;;;;;8.30;3.90;;;;;;;2.24;90.84;93098.97;5081797;28;20028;-78
2024/01/08 10:25:07;;;;;;;7.00;3.47;;;;;;;2.28;91.96;93102.59;5083111;28;20028;-77
2024/01/08 10:27:33;;;;;;;6.28;3.47;;;;;;;2.37;92.91;93090.38;5082717;28;20020;-77
2024/01/08 10:29:58;;;;;;;5.63;2.70;;;;;;;2.28;90.81;93084.19;5081357;28;20255;-77
2024/01/08 10:32:24;;;;;;;9.82;3.17;;;;;;;2.39;92.27;93090.88;5081191;28;20029;-78
2024/01/08 10:34:49;;;;;;;6.97;4.03;;;;;;;2.44;93.05;93092.66;5081703;28;20341;-77
2024/01/08 10:37:15;;;;;;;9.23;2.65;;;;;;;2.41;90.46;93086.13;5082188;28;20020;-77
2024/01/08 10:39:42;;;;;;;3.28;1.67;;;;;;;2.28;87.94;93114.94;5082465;28;20031;-77
2024/01/08 10:42:09;;;;;;;6.65;1.95;;;;;;;2.23;88.07;93097.38;5082667;28;20054;-78
2024/01/08 10:44:34;;;;;;;4.32;2.28;;;;;;;2.09;86.38;93097.25;5082870;28;20092;-77
2024/01/08 10:47:06;;;;;;;3.63;1.77;;;;;;;1.99;87.61;93105.25;5082875;28;20218;-77
2024/01/08 10:49:33;;;;;;;3.33;1.92;;;;;;;1.79;89.02;93117.53;5082758;28;20032;-77
2024/01/08 10:52:00;;;;;;;3.70;1.67;;;;;;;1.67;88.59;93111.03;5082541;28;20400;-77
2024/01/08 10:54:36;;;;;;;4.75;2.40;;;;;;;1.73;92.18;93102.06;5082944;28;20122;-77
2024/01/08 10:57:06;;;;;;;3.78;2.05;;;;;;;1.75;92.62;93097.31;5082750;28;20016;-77
2024/01/08 10:59:32;;;;;;;5.25;2.83;;;;;;;1.82;91.25;93099.63;5082887;28;20032;-77
2024/01/08 11:01:57;;;;;;;7.25;3.00;;;;;;;1.86;92.34;93098.03;5082610;28;20021;-77
2024/01/08 11:04:23;;;;;;;7.07;2.92;;;;;;;1.91;91.85;93109.25;5082679;28;20028;-77
2024/01/08 11:06:50;;;;;;;10.05;3.55;;;;;;;1.92;91.85;93102.16;5082435;28;20309;-77
2024/01/08 11:09:32;;;;;;;4.85;2.63;;;;;;;1.93;91.83;93103.72;5082529;28;20240;-77
2024/01/08 11:12:46;;;;;;;6.50;3.42;;;;;;;2.05;93.22;93106.75;5082447;28;20040;-77
2024/01/08 11:15:15;;;;;;;7.25;3.10;;;;;;;2.10;92.87;93113.84;5054538;28;20092;-77
2024/01/08 11:17:49;;;;;;;6.20;2.15;;;;;;;1.95;89.42;93122.63;5082408;28;20032;-77
2024/01/08 11:20:41;;;;;;;3.05;1.90;;;;;;;1.85;89.45;93117.47;5082326;28;20070;-77
2024/01/08 11:23:31;;;;;;;6.90;2.08;;;;;;;1.88;90.25;93136.09;5082671;28;20092;-77
2024/01/08 11:25:56;;;;;;;3.70;1.50;;;;;;;1.87;87.84;93115.34;5078149;28;20239;-77
2024/01/08 11:28:22;;;;;;;4.30;2.13;;;;;;;1.94;89.47;93134.22;5082226;28;20099;-80
2024/01/08 11:30:51;;;;;;;4.80;2.33;;;;;;;1.92;88.10;93128.44;5082287;28;20036;-80
2024/01/08 11:33:46;;;;;;;5.13;1.77;;;;;;;1.73;88.52;93131.75;5082411;28;20047;-81